createdAt,value
2023-04-09T00:00:26.845Z,11.40
2023-04-09T00:02:53.912Z,11.40
2023-04-09T00:05:21.146Z,11.40
2023-04-09T00:07:48.009Z,11.40
2023-04-09T00:10:14.942Z,11.40
2023-04-09T00:12:41.912Z,11.40
2023-04-09T00:15:15.048Z,11.40
2023-04-09T00:17:44.513Z,11.40
2023-04-09T00:20:11.617Z,11.40
2023-04-09T00:22:38.448Z,11.50
2023-04-09T00:25:07.270Z,11.50
2023-04-09T00:27:34.230Z,11.50
2023-04-09T00:30:01.114Z,11.50
2023-04-09T00:32:28.019Z,11.50
2023-04-09T00:34:54.841Z,11.50
2023-04-09T00:37:21.777Z,11.50
2023-04-09T00:39:48.750Z,11.50
2023-04-09T00:42:16.684Z,11.50
2023-04-09T00:44:43.642Z,11.50
2023-04-09T00:47:10.828Z,11.50
2023-04-09T00:49:37.945Z,11.50
2023-04-09T00:52:06.839Z,11.50
2023-04-09T00:54:33.993Z,11.50
2023-04-09T00:57:01.020Z,11.50
2023-04-09T00:59:28.725Z,11.50
2023-04-09T01:01:55.870Z,11.50
2023-04-09T01:04:24.634Z,11.50
2023-04-09T01:06:54.060Z,11.50
2023-04-09T01:09:28.614Z,11.50
2023-04-09T01:12:05.106Z,11.50
2023-04-09T01:15:03.423Z,11.50
2023-04-09T01:17:44.380Z,11.50
2023-04-09T01:20:23.003Z,11.50
2023-04-09T01:23:07.459Z,11.50
2023-04-09T01:25:59.117Z,11.50
2023-04-09T01:28:43.863Z,11.50
2023-04-09T01:31:17.356Z,11.50
2023-04-09T01:33:45.652Z,11.50
2023-04-09T01:36:13.538Z,11.50
2023-04-09T01:38:42.733Z,11.40
2023-04-09T01:41:18.032Z,11.40
2023-04-09T01:43:46.430Z,11.50
2023-04-09T01:46:15.309Z,11.40
2023-04-09T01:48:43.491Z,11.40
2023-04-09T01:51:10.584Z,11.40
2023-04-09T01:53:37.438Z,11.40
2023-04-09T01:56:04.566Z,11.50
2023-04-09T01:58:34.175Z,11.40
2023-04-09T02:01:12.011Z,11.40
2023-04-09T02:04:22.288Z,11.40
2023-04-09T02:06:59.327Z,11.50
2023-04-09T02:09:30.579Z,11.50
2023-04-09T02:12:02.099Z,11.50
2023-04-09T02:14:31.540Z,11.40
2023-04-09T02:16:59.623Z,11.40
2023-04-09T02:19:38.453Z,11.40
2023-04-09T02:22:05.481Z,11.40
2023-04-09T02:24:32.368Z,11.40
2023-04-09T02:26:59.365Z,11.40
2023-04-09T02:29:26.349Z,11.40
2023-04-09T02:31:53.422Z,11.40
2023-04-09T02:34:20.928Z,11.40
2023-04-09T02:36:47.859Z,11.40
2023-04-09T02:39:15.021Z,11.40
2023-04-09T02:41:41.947Z,11.40
2023-04-09T02:44:08.918Z,11.40
2023-04-09T02:46:35.851Z,11.40
2023-04-09T02:49:02.833Z,11.40
2023-04-09T02:51:29.757Z,11.40
2023-04-09T02:53:56.560Z,11.40
2023-04-09T02:56:23.448Z,11.40
2023-04-09T02:58:54.092Z,11.40
2023-04-09T03:01:21.652Z,11.40
2023-04-09T03:03:49.824Z,11.40
2023-04-09T03:06:18.531Z,11.40
2023-04-09T03:08:45.650Z,11.50
2023-04-09T03:11:12.805Z,11.40
2023-04-09T03:13:39.920Z,11.40
2023-04-09T03:16:07.347Z,11.40
2023-04-09T03:18:34.305Z,11.40
2023-04-09T03:21:08.474Z,11.40
2023-04-09T03:23:35.840Z,11.50
2023-04-09T03:26:04.307Z,11.40
2023-04-09T03:28:31.825Z,11.40
2023-04-09T03:30:58.845Z,11.40
2023-04-09T03:33:26.190Z,11.40
2023-04-09T03:35:53.394Z,11.40
2023-04-09T03:38:20.428Z,11.40
2023-04-09T03:40:47.377Z,11.40
2023-04-09T03:43:14.513Z,11.40
2023-04-09T03:45:41.434Z,11.40
2023-04-09T03:48:08.462Z,11.40
2023-04-09T03:50:42.389Z,11.40
2023-04-09T03:53:09.462Z,11.40
2023-04-09T03:55:37.916Z,11.40
2023-04-09T03:58:05.223Z,11.40
2023-04-09T04:00:32.104Z,11.40
2023-04-09T04:02:59.340Z,11.40
2023-04-09T04:05:26.565Z,11.40
2023-04-09T04:07:53.788Z,11.40
2023-04-09T04:10:21.042Z,11.40
2023-04-09T04:12:48.056Z,11.40
2023-04-09T04:15:15.698Z,11.30
2023-04-09T04:17:42.626Z,11.30
2023-04-09T04:20:09.995Z,11.30
2023-04-09T04:22:37.056Z,11.30
2023-04-09T04:25:04.713Z,11.30
2023-04-09T04:27:31.781Z,11.30
2023-04-09T04:30:00.202Z,11.30
2023-04-09T04:32:27.492Z,11.30
2023-04-09T04:34:54.878Z,11.30
2023-04-09T04:37:22.356Z,11.30
2023-04-09T04:39:49.187Z,11.30
2023-04-09T04:42:16.685Z,11.30
2023-04-09T04:44:44.312Z,11.30
2023-04-09T04:47:11.244Z,11.30
2023-04-09T04:49:37.964Z,11.30
2023-04-09T04:52:05.761Z,11.30
2023-04-09T04:54:33.997Z,11.30
2023-04-09T04:57:01.718Z,11.30
2023-04-09T04:59:28.953Z,11.30
2023-04-09T05:01:56.011Z,11.30
2023-04-09T05:04:23.262Z,11.30
2023-04-09T05:06:50.469Z,11.30
2023-04-09T05:09:17.528Z,11.30
2023-04-09T05:11:44.441Z,11.30
2023-04-09T05:14:13.211Z,11.30
2023-04-09T05:16:40.316Z,11.30
2023-04-09T05:19:07.309Z,11.30
2023-04-09T05:21:34.303Z,11.30
2023-04-09T05:24:01.145Z,11.20
2023-04-09T05:26:28.131Z,11.30
2023-04-09T05:28:55.066Z,11.20
2023-04-09T05:31:21.935Z,11.20
2023-04-09T05:33:48.726Z,11.20
2023-04-09T05:36:17.208Z,11.20
2023-04-09T05:38:44.943Z,11.20
2023-04-09T05:41:11.842Z,11.20
2023-04-09T05:43:38.941Z,11.20
2023-04-09T05:46:05.922Z,11.20
2023-04-09T05:48:36.297Z,11.20
2023-04-09T05:51:03.141Z,11.20
2023-04-09T05:53:31.564Z,11.10
2023-04-09T05:55:58.499Z,11.10
2023-04-09T05:58:25.439Z,11.10
2023-04-09T06:00:52.623Z,11.10
2023-04-09T06:03:19.843Z,11.10
2023-04-09T06:05:46.815Z,11.10
2023-04-09T06:08:14.218Z,11.20
2023-04-09T06:10:41.574Z,11.10
2023-04-09T06:13:09.760Z,11.10
2023-04-09T06:15:38.725Z,11.10
2023-04-09T06:18:05.765Z,11.10
2023-04-09T06:20:32.636Z,11.10
2023-04-09T06:22:59.584Z,11.10
2023-04-09T06:25:26.619Z,11.10
2023-04-09T06:27:53.489Z,11.10
2023-04-09T06:30:20.293Z,11.10
2023-04-09T06:32:54.585Z,11.20
2023-04-09T06:35:22.256Z,11.20
2023-04-09T06:37:49.456Z,11.20
2023-04-09T06:40:16.509Z,11.20
2023-04-09T06:42:43.212Z,11.20
2023-04-09T06:45:10.386Z,11.20
2023-04-09T06:47:37.190Z,11.20
2023-04-09T06:50:04.536Z,11.30
2023-04-09T06:52:31.547Z,11.30
2023-04-09T06:54:58.386Z,11.30
2023-04-09T06:57:26.327Z,11.30
2023-04-09T06:59:53.256Z,11.40
2023-04-09T07:02:20.551Z,11.40
2023-04-09T07:04:47.845Z,11.40
2023-04-09T07:07:14.938Z,11.50
2023-04-09T07:09:42.300Z,11.50
2023-04-09T07:12:09.066Z,11.50
2023-04-09T07:14:36.055Z,11.60
2023-04-09T07:17:02.852Z,11.70
2023-04-09T07:19:29.861Z,11.70
2023-04-09T07:21:56.749Z,11.70
2023-04-09T07:24:23.583Z,11.80
2023-04-09T07:26:52.045Z,11.80
2023-04-09T07:29:20.779Z,11.80
2023-04-09T07:31:47.825Z,11.80
2023-04-09T07:34:14.751Z,11.80
2023-04-09T07:36:42.921Z,11.80
2023-04-09T07:39:09.955Z,11.80
2023-04-09T07:41:37.540Z,11.80
2023-04-09T07:44:06.513Z,11.90
2023-04-09T07:46:33.565Z,11.90
2023-04-09T07:49:00.610Z,11.90
2023-04-09T07:51:27.794Z,12.00
2023-04-09T07:53:54.685Z,12.00
2023-04-09T07:56:21.824Z,12.00
2023-04-09T07:58:49.463Z,12.10
2023-04-09T08:01:16.572Z,12.10
2023-04-09T08:03:43.603Z,12.20
2023-04-09T08:06:10.645Z,12.20
2023-04-09T08:08:37.590Z,12.30
2023-04-09T08:11:04.720Z,12.40
2023-04-09T08:13:31.627Z,12.40
2023-04-09T08:16:02.472Z,12.50
2023-04-09T08:18:29.818Z,12.50
2023-04-09T08:20:57.135Z,12.60
2023-04-09T08:23:24.074Z,12.60
2023-04-09T08:25:51.053Z,12.70
2023-04-09T08:28:18.412Z,12.60
2023-04-09T08:30:47.732Z,12.70
2023-04-09T08:33:15.023Z,12.70
2023-04-09T08:35:42.604Z,12.70
2023-04-09T08:38:09.643Z,12.80
2023-04-09T08:40:38.144Z,12.80
2023-04-09T08:43:07.035Z,12.90
2023-04-09T08:45:34.201Z,12.90
2023-04-09T08:48:03.949Z,12.90
2023-04-09T08:50:33.966Z,12.90
2023-04-09T08:53:04.679Z,13.00
2023-04-09T08:55:34.487Z,13.00
2023-04-09T08:58:05.628Z,13.00
2023-04-09T09:00:32.567Z,13.00
2023-04-09T09:03:09.906Z,12.90
2023-04-09T09:05:44.755Z,13.00
2023-04-09T09:08:26.263Z,13.00
2023-04-09T09:10:53.135Z,13.00
2023-04-09T09:13:23.994Z,13.10
2023-04-09T09:16:14.608Z,13.10
2023-04-09T09:18:43.374Z,13.20
2023-04-09T09:21:15.726Z,13.20
2023-04-09T09:23:42.959Z,13.30
2023-04-09T09:26:24.869Z,13.40
2023-04-09T09:28:52.517Z,13.40
2023-04-09T09:31:22.162Z,13.50
2023-04-09T09:33:50.541Z,13.60
2023-04-09T09:36:32.015Z,13.70
2023-04-09T09:39:03.130Z,13.80
2023-04-09T09:41:30.581Z,13.90
2023-04-09T09:43:57.504Z,14.00
2023-04-09T09:46:26.507Z,14.00
2023-04-09T09:48:54.195Z,14.10
2023-04-09T09:51:29.237Z,14.10
2023-04-09T09:53:59.653Z,14.10
2023-04-09T09:56:32.622Z,14.20
2023-04-09T09:59:22.570Z,14.10
2023-04-09T10:01:56.205Z,14.20
2023-04-09T10:04:26.941Z,14.20
2023-04-09T10:06:54.925Z,14.30
2023-04-09T10:09:23.600Z,14.30
2023-04-09T10:11:50.643Z,14.30
2023-04-09T10:14:18.969Z,14.40
2023-04-09T10:16:47.281Z,14.40
2023-04-09T10:19:15.274Z,14.40
2023-04-09T10:21:55.615Z,14.50
2023-04-09T10:24:23.108Z,14.50
2023-04-09T10:26:54.953Z,14.60
2023-04-09T10:29:28.614Z,14.70
2023-04-09T10:32:08.887Z,14.70
2023-04-09T10:34:40.855Z,14.80
2023-04-09T10:37:15.080Z,14.90
2023-04-09T10:39:45.832Z,14.90
2023-04-09T10:42:16.274Z,15.00
2023-04-09T10:44:43.237Z,15.00
2023-04-09T10:47:10.872Z,15.10
2023-04-09T10:49:39.838Z,15.20
2023-04-09T10:52:11.871Z,15.30
2023-04-09T10:54:45.430Z,15.30
2023-04-09T10:57:22.452Z,15.40
2023-04-09T10:59:51.750Z,15.40
2023-04-09T11:02:39.156Z,15.50
2023-04-09T11:05:18.144Z,15.60
2023-04-09T11:07:49.685Z,15.70
2023-04-09T11:10:16.737Z,15.70
2023-04-09T11:12:43.647Z,15.80
2023-04-09T11:15:18.405Z,15.80
2023-04-09T11:17:49.830Z,15.80
2023-04-09T11:20:24.366Z,15.90
2023-04-09T11:22:56.132Z,15.90
2023-04-09T11:25:28.001Z,16.00
2023-04-09T11:27:55.785Z,16.00
2023-04-09T11:30:23.285Z,16.10
2023-04-09T11:32:51.371Z,16.20
2023-04-09T11:35:20.853Z,16.30
2023-04-09T11:37:49.314Z,16.40
2023-04-09T11:40:21.013Z,16.40
2023-04-09T11:42:50.890Z,16.50
2023-04-09T11:45:19.217Z,16.60
2023-04-09T11:47:47.342Z,16.60
2023-04-09T11:50:16.627Z,16.60
2023-04-09T11:52:44.884Z,16.60
2023-04-09T11:55:12.415Z,16.50
2023-04-09T11:57:47.086Z,16.50
2023-04-09T12:00:18.155Z,16.50
2023-04-09T12:02:47.129Z,16.50
2023-04-09T12:05:26.572Z,16.50
2023-04-09T12:08:01.820Z,16.50
2023-04-09T12:10:30.457Z,16.50
2023-04-09T12:13:03.553Z,16.50
2023-04-09T12:15:35.183Z,16.50
2023-04-09T12:18:02.502Z,16.60
2023-04-09T12:20:33.426Z,16.70
2023-04-09T12:23:03.494Z,16.70
2023-04-09T12:25:37.186Z,16.80
2023-04-09T12:28:07.544Z,16.80
2023-04-09T12:30:34.532Z,16.80
2023-04-09T12:33:02.695Z,16.80
2023-04-09T12:35:29.591Z,16.80
2023-04-09T12:37:56.537Z,16.70
2023-04-09T12:40:23.443Z,16.70
2023-04-09T12:42:50.352Z,16.70
2023-04-09T12:45:19.991Z,16.70
2023-04-09T12:47:47.115Z,16.80
2023-04-09T12:50:17.724Z,16.70
2023-04-09T12:52:45.313Z,16.80
2023-04-09T12:55:13.103Z,16.80
2023-04-09T12:57:42.744Z,16.80
2023-04-09T13:00:10.194Z,16.80
2023-04-09T13:02:37.510Z,16.90
2023-04-09T13:05:04.811Z,17.00
2023-04-09T13:07:31.658Z,17.00
2023-04-09T13:09:58.629Z,17.10
2023-04-09T13:12:25.820Z,17.20
2023-04-09T13:14:54.637Z,17.20
2023-04-09T13:17:22.161Z,17.20
2023-04-09T13:19:50.078Z,17.20
2023-04-09T13:22:16.888Z,17.30
2023-04-09T13:24:43.893Z,17.20
2023-04-09T13:27:11.396Z,17.20
2023-04-09T13:29:38.784Z,17.10
2023-04-09T13:32:10.845Z,17.00
2023-04-09T13:34:39.010Z,17.00
2023-04-09T13:37:06.066Z,17.00
2023-04-09T13:39:33.227Z,17.10
2023-04-09T13:42:01.386Z,17.10
2023-04-09T13:44:29.478Z,17.10
2023-04-09T13:46:56.563Z,17.10
2023-04-09T13:49:23.466Z,17.20
2023-04-09T13:51:51.051Z,17.10
2023-04-09T13:54:18.003Z,17.20
2023-04-09T13:56:46.145Z,17.30
2023-04-09T13:59:13.093Z,17.50
2023-04-09T14:01:40.080Z,17.90
2023-04-09T14:04:07.448Z,18.00
2023-04-09T14:06:34.497Z,18.10
2023-04-09T14:09:01.510Z,18.20
2023-04-09T14:11:28.388Z,18.20
2023-04-09T14:13:58.412Z,18.30
2023-04-09T14:16:25.781Z,18.50
2023-04-09T14:18:53.170Z,18.80
2023-04-09T14:21:20.417Z,19.10
2023-04-09T14:23:47.509Z,19.50
2023-04-09T14:26:14.543Z,19.80
2023-04-09T14:28:41.660Z,20.10
2023-04-09T14:31:08.880Z,20.40
2023-04-09T14:33:35.854Z,20.50
2023-04-09T14:36:03.049Z,20.50
2023-04-09T14:38:30.054Z,20.40
2023-04-09T14:40:56.864Z,20.30
2023-04-09T14:43:23.665Z,20.20
2023-04-09T14:45:50.587Z,20.20
2023-04-09T14:48:17.473Z,20.10
2023-04-09T14:50:44.349Z,20.20
2023-04-09T14:53:12.420Z,20.30
2023-04-09T14:55:39.484Z,20.40
2023-04-09T14:58:08.192Z,20.40
2023-04-09T15:00:35.266Z,20.30
2023-04-09T15:03:02.658Z,20.20
2023-04-09T15:05:29.638Z,20.00
2023-04-09T15:07:57.654Z,19.80
2023-04-09T15:10:25.199Z,19.60
2023-04-09T15:12:52.168Z,19.50
2023-04-09T15:15:19.719Z,19.50
2023-04-09T15:17:46.603Z,19.60
2023-04-09T15:20:14.105Z,19.60
2023-04-09T15:22:41.141Z,19.80
2023-04-09T15:25:08.218Z,19.90
2023-04-09T15:27:35.465Z,20.10
2023-04-09T15:30:02.367Z,20.20
2023-04-09T15:32:30.954Z,20.40
2023-04-09T15:34:58.089Z,20.50
2023-04-09T15:37:25.001Z,20.70
2023-04-09T15:39:52.121Z,20.90
2023-04-09T15:42:22.774Z,21.00
2023-04-09T15:44:50.621Z,21.20
2023-04-09T15:47:17.912Z,21.30
2023-04-09T15:49:45.035Z,21.50
2023-04-09T15:52:11.809Z,21.70
2023-04-09T15:54:38.802Z,21.80
2023-04-09T15:57:05.695Z,21.90
2023-04-09T15:59:32.616Z,22.00
2023-04-09T16:01:59.609Z,21.90
2023-04-09T16:04:27.634Z,21.80
2023-04-09T16:06:56.291Z,21.70
2023-04-09T16:09:23.751Z,21.70
2023-04-09T16:11:51.088Z,21.60
2023-04-09T16:14:18.056Z,21.50
2023-04-09T16:16:49.636Z,21.40
2023-04-09T16:19:21.270Z,21.20
2023-04-09T16:21:49.139Z,21.10
2023-04-09T16:24:16.146Z,21.10
2023-04-09T16:26:44.240Z,21.10
2023-04-09T16:29:11.367Z,21.20
2023-04-09T16:31:42.032Z,21.20
2023-04-09T16:34:09.256Z,21.30
2023-04-09T16:36:37.196Z,21.30
2023-04-09T16:39:05.007Z,21.40
2023-04-09T16:41:33.201Z,21.30
2023-04-09T16:44:00.660Z,21.40
2023-04-09T16:46:27.682Z,21.40
2023-04-09T16:48:54.927Z,21.40
2023-04-09T16:51:22.071Z,21.50
2023-04-09T16:53:49.060Z,21.50
2023-04-09T16:56:16.828Z,21.50
2023-04-09T16:58:43.969Z,21.60
2023-04-09T17:01:10.941Z,21.60
2023-04-09T17:03:37.940Z,21.50
2023-04-09T17:06:05.086Z,21.50
2023-04-09T17:08:32.294Z,21.30
2023-04-09T17:11:02.343Z,21.10
2023-04-09T17:13:35.272Z,21.00
2023-04-09T17:16:02.907Z,20.90
2023-04-09T17:18:30.235Z,20.60
2023-04-09T17:20:57.239Z,20.40
2023-04-09T17:23:24.299Z,20.20
2023-04-09T17:25:51.127Z,20.00
2023-04-09T17:28:19.031Z,19.80
2023-04-09T17:30:46.273Z,19.50
2023-04-09T17:33:13.409Z,19.30
2023-04-09T17:35:42.111Z,19.10
2023-04-09T17:38:09.292Z,18.90
2023-04-09T17:40:36.114Z,18.70
2023-04-09T17:43:03.000Z,18.60
2023-04-09T17:45:30.027Z,18.30
2023-04-09T17:47:57.224Z,18.10
2023-04-09T17:50:24.248Z,18.00
2023-04-09T17:52:51.082Z,17.90
2023-04-09T17:55:18.384Z,17.70
2023-04-09T17:57:45.260Z,17.60
2023-04-09T18:00:12.673Z,17.40
2023-04-09T18:02:40.011Z,17.30
2023-04-09T18:05:07.531Z,17.20
2023-04-09T18:07:34.572Z,17.10
2023-04-09T18:10:03.280Z,17.00
2023-04-09T18:12:30.519Z,16.80
2023-04-09T18:14:57.562Z,16.70
2023-04-09T18:17:26.452Z,16.60
2023-04-09T18:19:58.658Z,16.50
2023-04-09T18:22:27.491Z,16.30
2023-04-09T18:24:54.697Z,16.30
2023-04-09T18:27:21.779Z,16.10
2023-04-09T18:29:51.642Z,16.00
2023-04-09T18:32:19.807Z,15.90
2023-04-09T18:34:47.730Z,15.80
2023-04-09T18:37:15.483Z,15.70
2023-04-09T18:39:42.660Z,15.60
2023-04-09T18:42:10.012Z,15.50
2023-04-09T18:44:37.797Z,15.40
2023-04-09T18:47:05.894Z,15.30
2023-04-09T18:49:33.387Z,15.20
2023-04-09T18:52:00.938Z,15.20
2023-04-09T18:54:28.316Z,15.00
2023-04-09T18:56:55.290Z,15.00
2023-04-09T18:59:22.609Z,14.80
2023-04-09T19:01:49.844Z,14.70
2023-04-09T19:04:16.865Z,14.60
2023-04-09T19:06:46.372Z,14.60
2023-04-09T19:09:13.340Z,14.50
2023-04-09T19:11:40.307Z,14.40
2023-04-09T19:14:07.161Z,14.30
2023-04-09T19:16:34.095Z,14.20
2023-04-09T19:19:01.260Z,14.10
2023-04-09T19:21:29.086Z,14.10
2023-04-09T19:23:56.484Z,14.00
2023-04-09T19:26:23.517Z,13.90
2023-04-09T19:28:50.492Z,13.80
2023-04-09T19:31:17.283Z,13.70
2023-04-09T19:33:44.188Z,13.60
2023-04-09T19:36:12.949Z,13.50
2023-04-09T19:38:39.970Z,13.50
2023-04-09T19:41:07.116Z,13.40
2023-04-09T19:43:33.969Z,13.30
2023-04-09T19:46:08.565Z,13.20
2023-04-09T19:48:40.603Z,13.20
2023-04-09T19:51:07.758Z,13.10
2023-04-09T19:53:36.365Z,13.10
2023-04-09T19:56:03.280Z,13.00
2023-04-09T19:58:32.077Z,12.90
2023-04-09T20:00:58.934Z,12.90
2023-04-09T20:03:26.094Z,12.80
2023-04-09T20:05:53.654Z,12.70
2023-04-09T20:08:20.542Z,12.70
2023-04-09T20:10:47.856Z,12.60
2023-04-09T20:13:14.741Z,12.60
2023-04-09T20:15:41.930Z,12.50
2023-04-09T20:18:08.984Z,12.50
2023-04-09T20:20:36.200Z,12.40
2023-04-09T20:23:03.427Z,12.40
2023-04-09T20:25:34.716Z,12.30
2023-04-09T20:28:02.430Z,12.30
2023-04-09T20:30:34.438Z,12.20
2023-04-09T20:33:01.345Z,12.20
2023-04-09T20:35:28.295Z,12.20
2023-04-09T20:37:55.600Z,12.20
2023-04-09T20:40:22.690Z,12.10
2023-04-09T20:42:49.885Z,12.10
2023-04-09T20:45:16.883Z,12.10
2023-04-09T20:47:43.910Z,12.00
2023-04-09T20:50:11.121Z,12.00
2023-04-09T20:52:38.485Z,12.00
2023-04-09T20:55:06.358Z,12.00
2023-04-09T20:57:33.502Z,11.90
2023-04-09T21:00:01.071Z,11.90
2023-04-09T21:02:28.211Z,11.90
2023-04-09T21:04:56.322Z,11.90
2023-04-09T21:07:23.249Z,11.90
2023-04-09T21:09:50.097Z,11.90
2023-04-09T21:12:17.008Z,11.90
2023-04-09T21:14:43.985Z,11.90
2023-04-09T21:17:10.965Z,11.90
2023-04-09T21:19:37.751Z,11.90
2023-04-09T21:22:05.136Z,11.90
2023-04-09T21:24:34.001Z,11.90
2023-04-09T21:27:01.707Z,11.90
2023-04-09T21:29:28.578Z,11.90
2023-04-09T21:31:55.493Z,11.90
2023-04-09T21:34:22.517Z,11.90
2023-04-09T21:36:49.426Z,11.90
2023-04-09T21:39:16.311Z,11.80
2023-04-09T21:41:43.180Z,11.80
2023-04-09T21:44:10.079Z,11.80
2023-04-09T21:46:37.404Z,11.80
2023-04-09T21:49:04.727Z,11.80
2023-04-09T21:51:32.306Z,11.80
2023-04-09T21:54:09.875Z,11.80
2023-04-09T21:56:38.863Z,11.70
2023-04-09T21:59:05.804Z,11.70
2023-04-09T22:01:34.445Z,11.70
2023-04-09T22:04:02.274Z,11.70
2023-04-09T22:06:29.796Z,11.70
2023-04-09T22:08:57.982Z,11.70
2023-04-09T22:11:27.853Z,11.60
2023-04-09T22:13:57.007Z,11.60
2023-04-09T22:16:24.708Z,11.60
2023-04-09T22:18:52.649Z,11.60
2023-04-09T22:21:19.861Z,11.50
2023-04-09T22:23:46.768Z,11.50
2023-04-09T22:26:13.772Z,11.50
2023-04-09T22:28:40.661Z,11.50
2023-04-09T22:31:07.976Z,11.50
2023-04-09T22:33:34.907Z,11.50
2023-04-09T22:36:01.934Z,11.40
2023-04-09T22:38:28.824Z,11.50
2023-04-09T22:40:55.999Z,11.40
2023-04-09T22:43:23.198Z,11.40
2023-04-09T22:45:52.356Z,11.40
2023-04-09T22:48:20.430Z,11.40
2023-04-09T22:50:48.390Z,11.40
2023-04-09T22:53:19.547Z,11.40
2023-04-09T22:55:51.388Z,11.30
2023-04-09T22:58:19.060Z,11.30
2023-04-09T23:00:47.259Z,11.30
2023-04-09T23:03:14.826Z,11.30
2023-04-09T23:05:42.094Z,11.30
2023-04-09T23:08:09.707Z,11.30
2023-04-09T23:10:36.865Z,11.30
2023-04-09T23:13:03.935Z,11.30
2023-04-09T23:15:31.015Z,11.30
2023-04-09T23:17:57.947Z,11.30
2023-04-09T23:20:25.956Z,11.30
2023-04-09T23:22:52.904Z,11.30
2023-04-09T23:25:21.767Z,11.30
2023-04-09T23:27:48.967Z,11.30
2023-04-09T23:30:20.335Z,11.30
2023-04-09T23:32:48.672Z,11.30
2023-04-09T23:35:15.951Z,11.30
2023-04-09T23:37:43.069Z,11.30
2023-04-09T23:40:11.211Z,11.30
2023-04-09T23:42:38.107Z,11.30
2023-04-09T23:45:06.148Z,11.30
2023-04-09T23:47:34.894Z,11.20
2023-04-09T23:50:06.035Z,11.20
2023-04-09T23:52:38.096Z,11.20
2023-04-09T23:55:07.483Z,11.20
2023-04-09T23:57:35.334Z,11.20
